MZBZ/BZE METAR and TAF weather

Enter ICAO airport designator
Station Type Date Time Source
MZBZ METAR 2019/06/26 18:00 UTC NOAA

MZBZ 261800Z 08012G22KT 9999 SCT023 31/25 A2997 Q1014 NOSIG


Station Type Date Time Source
MZBZ Decoded METAR 2019/06/26 18:00 UTC NOAA

Belize / Phillip Goldston Intl. Airport, Belize (MZBZ) 17-32N 088-18W 5M
Jun 26, 2019 - 02:00 PM EDT / 2019.06.26 1800 UTC
Wind: from the E (080 degrees) at 14 MPH (12 KT) gusting to 25 MPH (22 KT):0
Visibility: greater than 7 mile(s):0
Sky conditions: partly cloudy
Temperature: 87 F (31 C)
Heat index: 97.5 F (36.4 C):1
Dew Point: 77 F (25 C)
Relative Humidity: 70%
Pressure (altimeter): 29.97 in. Hg (1014 hPa)
ob: MZBZ 261800Z 08012G22KT 9999 SCT023 31/25 A2997 Q1014 NOSIG
cycle: 18

Station Type Date Time Source
MZBZ TAF 2019/06/26 18:59 UTC NOAA

TAF MZBZ 261500Z 2618/2718 09010KT 9999 SCT024

Example: see airport list